Time;durP1;ratioP1;P1;durP2;ratioP2;P2;SDS_P1;SDS_P2;PMS_P1;PMS_P2;Temp;Humidity;BMP_temperature;BMP_pressure;BME280_temperature;BME280_humidity;BME280_pressure;Samples;Min_cycle;Max_cycle;Signal;HPM_P1;HPM_P2
2022/06/03 00:02:38;;;;;;;4.37;3.83;;;;;;;;;;5002908;28;20224;-76
2022/06/03 00:05:31;;;;;;;4.33;3.90;;;;;;;;;;5012537;28;20220;-76
2022/06/03 00:08:13;;;;;;;4.23;3.83;;;;;;;;;;4998297;28;20714;-75
2022/06/03 00:11:11;;;;;;;3.70;3.40;;;;;;;;;;5001878;28;20224;-75
2022/06/03 00:13:50;;;;;;;4.00;3.70;;;;;;;;;;4997761;28;20619;-75
2022/06/03 00:16:43;;;;;;;4.17;3.70;;;;;;;;;;4995676;28;20239;-75
2022/06/03 00:19:41;;;;;;;6.97;4.67;;;;;;;;;;5009248;28;20232;-75
2022/06/03 00:22:18;;;;;;;5.43;4.93;;;;;;;;;;4997200;28;20217;-75
2022/06/03 00:25:04;;;;;;;4.83;4.30;;;;;;;;;;5029922;28;20249;-76
2022/06/03 00:27:45;;;;;;;4.77;4.33;;;;;;;;;;5033120;28;20271;-75
2022/06/03 00:30:27;;;;;;;5.40;4.50;;;;;;;;;;5011894;28;20259;-76
2022/06/03 00:33:05;;;;;;;4.63;3.93;;;;;;;;;;5005363;28;20232;-75
2022/06/03 00:36:04;;;;;;;4.50;3.97;;;;;;;;;;5036270;28;20254;-74
2022/06/03 00:38:57;;;;;;;4.40;4.00;;;;;;;;;;5019249;28;20683;-75
2022/06/03 00:41:43;;;;;;;4.70;4.17;;;;;;;;;;5016769;28;20315;-75
2022/06/03 00:44:53;;;;;;;4.20;3.80;;;;;;;;;;5016618;28;20229;-76
2022/06/03 00:47:54;;;;;;;4.40;4.00;;;;;;;;;;4961638;28;20230;-76
2022/06/03 00:50:27;;;;;;;4.63;4.23;;;;;;;;;;4930248;28;20257;-75
2022/06/03 00:53:01;;;;;;;4.33;3.93;;;;;;;;;;4997858;28;20236;-75
2022/06/03 00:56:06;;;;;;;4.30;4.00;;;;;;;;;;5003546;28;20217;-76
2022/06/03 00:58:46;;;;;;;3.80;3.50;;;;;;;;;;5013534;28;20221;-75
2022/06/03 01:01:24;;;;;;;5.00;3.87;;;;;;;;;;5029784;28;20231;-75
2022/06/03 01:03:54;;;;;;;3.93;3.63;;;;;;;;;;5000349;28;20239;-75
2022/06/03 01:06:46;;;;;;;4.27;3.90;;;;;;;;;;5018158;28;20235;-75
2022/06/03 01:10:12;;;;;;;4.03;3.73;;;;;;;;;;4993688;28;20324;-75
2022/06/03 01:13:04;;;;;;;3.50;3.30;;;;;;;;;;5002263;28;20232;-75
2022/06/03 01:16:12;;;;;;;3.93;3.63;;;;;;;;;;5003759;28;20222;-74
2022/06/03 01:18:43;;;;;;;4.03;3.73;;;;;;;;;;5013146;28;20307;-74
2022/06/03 01:21:09;;;;;;;3.90;3.60;;;;;;;;;;5005787;28;20304;-75
2022/06/03 01:24:02;;;;;;;3.93;3.53;;;;;;;;;;5001982;28;20216;-75
2022/06/03 01:26:52;;;;;;;4.37;3.83;;;;;;;;;;5015901;28;20225;-74
2022/06/03 01:29:56;;;;;;;3.90;3.60;;;;;;;;;;5007795;28;20230;-74
2022/06/03 01:32:33;;;;;;;3.80;3.50;;;;;;;;;;5023906;28;20224;-75
2022/06/03 01:35:08;;;;;;;4.30;3.90;;;;;;;;;;5027350;28;20240;-75
2022/06/03 01:37:54;;;;;;;3.47;3.17;;;;;;;;;;5029684;28;20278;-75
2022/06/03 01:40:41;;;;;;;4.10;3.80;;;;;;;;;;5016224;28;20224;-75
2022/06/03 01:43:27;;;;;;;4.00;3.70;;;;;;;;;;5019230;28;20244;-75
2022/06/03 01:46:15;;;;;;;3.63;3.33;;;;;;;;;;5011034;28;20259;-74
2022/06/03 01:48:56;;;;;;;3.83;3.53;;;;;;;;;;4993227;28;20239;-75
2022/06/03 01:51:48;;;;;;;3.53;3.23;;;;;;;;;;5018512;28;20243;-75
2022/06/03 01:54:38;;;;;;;4.03;3.53;;;;;;;;;;5018929;28;20216;-75
2022/06/03 01:57:06;;;;;;;4.27;3.90;;;;;;;;;;4994943;28;20225;-74
2022/06/03 01:59:50;;;;;;;4.67;3.40;;;;;;;;;;5023913;28;20225;-75
2022/06/03 02:02:29;;;;;;;3.90;3.50;;;;;;;;;;5018114;28;20252;-75
2022/06/03 02:05:17;;;;;;;3.70;3.40;;;;;;;;;;5008240;28;20232;-74
2022/06/03 02:08:10;;;;;;;4.00;3.60;;;;;;;;;;5010687;28;20291;-74
2022/06/03 02:10:50;;;;;;;4.97;4.00;;;;;;;;;;5013132;28;20312;-74
2022/06/03 02:13:27;;;;;;;3.80;3.50;;;;;;;;;;5027455;28;20220;-75
2022/06/03 02:16:32;;;;;;;4.10;3.70;;;;;;;;;;5017357;28;20232;-76
2022/06/03 02:19:27;;;;;;;4.50;3.77;;;;;;;;;;5004417;28;20244;-75
2022/06/03 02:22:30;;;;;;;5.57;3.97;;;;;;;;;;4985918;28;20240;-76
2022/06/03 02:25:26;;;;;;;4.10;3.70;;;;;;;;;;5017027;28;20307;-76
2022/06/03 02:28:13;;;;;;;4.70;3.60;;;;;;;;;;4996643;28;20236;-76
2022/06/03 02:30:51;;;;;;;3.90;3.43;;;;;;;;;;5014619;28;20311;-75
2022/06/03 02:34:01;;;;;;;4.37;4.00;;;;;;;;;;4994574;28;20240;-76
2022/06/03 02:36:59;;;;;;;5.90;3.43;;;;;;;;;;4968026;28;20220;-76
2022/06/03 02:39:52;;;;;;;3.90;3.53;;;;;;;;;;5010092;28;20216;-75
2022/06/03 02:42:46;;;;;;;4.00;3.70;;;;;;;;;;4974466;28;20244;-76
2022/06/03 02:45:13;;;;;;;4.17;3.47;;;;;;;;;;4986564;28;20232;-76
2022/06/03 02:47:59;;;;;;;3.33;3.03;;;;;;;;;;5014625;28;20634;-75
2022/06/03 02:50:52;;;;;;;5.27;3.43;;;;;;;;;;5015971;28;20231;-75
2022/06/03 02:53:38;;;;;;;3.77;3.43;;;;;;;;;;5009448;28;20224;-74
2022/06/03 02:56:16;;;;;;;4.47;4.00;;;;;;;;;;5019831;28;20303;-74
2022/06/03 02:59:20;;;;;;;6.40;3.70;;;;;;;;;;5015975;28;20228;-76
2022/06/03 03:02:13;;;;;;;4.50;4.10;;;;;;;;;;5002595;28;20754;-75
2022/06/03 03:05:16;;;;;;;5.50;4.23;;;;;;;;;;5018973;28;20228;-75
2022/06/03 03:08:17;;;;;;;4.53;4.10;;;;;;;;;;5014534;28;20240;-75
2022/06/03 03:11:10;;;;;;;4.30;3.90;;;;;;;;;;4999706;28;20221;-75
2022/06/03 03:13:51;;;;;;;4.03;3.63;;;;;;;;;;4997377;28;20311;-75
2022/06/03 03:16:34;;;;;;;4.13;3.73;;;;;;;;;;4989794;28;20288;-74
2022/06/03 03:19:17;;;;;;;3.70;3.40;;;;;;;;;;5019457;28;20244;-75
2022/06/03 03:21:56;;;;;;;3.97;3.57;;;;;;;;;;5013240;28;20253;-74
2022/06/03 03:24:50;;;;;;;4.23;3.50;;;;;;;;;;5017098;28;20366;-74
2022/06/03 03:27:33;;;;;;;4.10;3.70;;;;;;;;;;4996761;28;20224;-75
2022/06/03 03:30:15;;;;;;;4.20;3.80;;;;;;;;;;4983654;28;20293;-75
2022/06/03 03:33:06;;;;;;;5.10;3.83;;;;;;;;;;5017551;28;20223;-75
2022/06/03 03:35:55;;;;;;;3.80;3.50;;;;;;;;;;5011343;28;20220;-76
2022/06/03 03:38:21;;;;;;;5.07;3.50;;;;;;;;;;5012460;28;20221;-75
2022/06/03 03:41:08;;;;;;;6.63;3.70;;;;;;;;;;5017542;28;20228;-75
2022/06/03 03:43:55;;;;;;;3.50;3.20;;;;;;;;;;5017024;28;20244;-75
2022/06/03 03:47:05;;;;;;;5.73;3.93;;;;;;;;;;5018291;28;20220;-74
2022/06/03 03:49:52;;;;;;;3.60;3.30;;;;;;;;;;4997990;28;20252;-75
2022/06/03 03:52:25;;;;;;;3.93;3.63;;;;;;;;;;5013223;28;20224;-74
2022/06/03 03:55:00;;;;;;;6.73;4.30;;;;;;;;;;5019418;28;20224;-74
2022/06/03 03:57:46;;;;;;;5.07;4.23;;;;;;;;;;5022752;28;20255;-75
2022/06/03 04:00:47;;;;;;;4.37;3.97;;;;;;;;;;5027331;28;20314;-75
2022/06/03 04:03:27;;;;;;;5.07;4.57;;;;;;;;;;5025744;28;20213;-76
2022/06/03 04:06:20;;;;;;;6.00;4.50;;;;;;;;;;5031755;28;20217;-75
2022/06/03 04:09:01;;;;;;;4.87;4.27;;;;;;;;;;5008069;28;20240;-74
2022/06/03 04:11:53;;;;;;;6.03;4.17;;;;;;;;;;5015987;28;20224;-75
2022/06/03 04:14:55;;;;;;;7.03;4.63;;;;;;;;;;5020049;28;20508;-76
2022/06/03 04:17:52;;;;;;;4.67;3.90;;;;;;;;;;5000464;28;20589;-75
2022/06/03 04:20:39;;;;;;;6.97;4.03;;;;;;;;;;5033718;28;20231;-75
2022/06/03 04:23:52;;;;;;;4.77;4.23;;;;;;;;;;4996491;28;20240;-75
2022/06/03 04:26:39;;;;;;;4.43;4.00;;;;;;;;;;4975035;28;20223;-75
2022/06/03 04:29:34;;;;;;;4.67;4.27;;;;;;;;;;5019635;28;20231;-74
2022/06/03 04:32:03;;;;;;;5.97;4.63;;;;;;;;;;5003080;28;20229;-76
2022/06/03 04:35:13;;;;;;;6.63;4.67;;;;;;;;;;5011713;28;20308;-74
2022/06/03 04:37:45;;;;;;;6.67;4.60;;;;;;;;;;5033501;28;20227;-74
2022/06/03 04:40:22;;;;;;;5.07;4.57;;;;;;;;;;5020833;28;20602;-75
2022/06/03 04:43:05;;;;;;;5.67;4.77;;;;;;;;;;5023406;28;20236;-76
2022/06/03 04:46:00;;;;;;;5.60;4.70;;;;;;;;;;5036636;28;20230;-76
2022/06/03 04:48:31;;;;;;;5.57;4.90;;;;;;;;;;5029969;28;20232;-77
2022/06/03 04:51:38;;;;;;;5.20;4.50;;;;;;;;;;5016888;28;20228;-76
2022/06/03 04:54:16;;;;;;;4.73;4.33;;;;;;;;;;5006716;28;20715;-76
2022/06/03 04:57:18;;;;;;;6.67;4.67;;;;;;;;;;4998227;28;20231;-76
2022/06/03 04:59:56;;;;;;;4.63;4.23;;;;;;;;;;5039720;28;20212;-78
2022/06/03 05:02:37;;;;;;;6.40;4.67;;;;;;;;;;5031584;28;20250;-76
2022/06/03 05:05:17;;;;;;;7.53;5.20;;;;;;;;;;4993829;28;20212;-78
2022/06/03 05:08:20;;;;;;;6.73;6.03;;;;;;;;;;5015649;28;20252;-77
2022/06/03 05:11:20;;;;;;;5.30;4.60;;;;;;;;;;5017553;28;20773;-77
2022/06/03 05:14:12;;;;;;;5.67;5.07;;;;;;;;;;5034078;28;20768;-75
2022/06/03 05:17:27;;;;;;;6.57;5.17;;;;;;;;;;5020778;28;20699;-75
2022/06/03 05:20:05;;;;;;;6.60;5.40;;;;;;;;;;4971351;28;20694;-75
2022/06/03 05:23:01;;;;;;;6.13;5.33;;;;;;;;;;5017244;28;20319;-76
2022/06/03 05:25:55;;;;;;;6.17;5.37;;;;;;;;;;5014267;28;20270;-77
2022/06/03 05:28:45;;;;;;;6.90;5.20;;;;;;;;;;4996144;28;20446;-76
2022/06/03 05:31:17;;;;;;;11.83;6.40;;;;;;;;;;4983880;28;20224;-76
2022/06/03 05:33:52;;;;;;;9.33;6.57;;;;;;;;;;5014267;28;20244;-73
2022/06/03 05:36:24;;;;;;;11.03;6.50;;;;;;;;;;5015912;28;20224;-73
2022/06/03 05:38:52;;;;;;;9.43;6.03;;;;;;;;;;5006329;28;20225;-75
2022/06/03 05:44:32;;;;;;;12.60;6.17;;;;;;;;;;5003010;28;20236;-75
2022/06/03 05:47:08;;;;;;;8.60;5.33;;;;;;;;;;5011719;28;20701;-75
2022/06/03 05:49:40;;;;;;;9.40;5.07;;;;;;;;;;4983510;28;20234;-75
2022/06/03 05:52:46;;;;;;;9.83;4.73;;;;;;;;;;4981094;28;20290;-75
2022/06/03 05:55:30;;;;;;;9.70;4.40;;;;;;;;;;5001917;28;20204;-76
2022/06/03 05:58:13;;;;;;;9.23;4.50;;;;;;;;;;5015130;28;20216;-74
2022/06/03 06:01:05;;;;;;;5.97;4.13;;;;;;;;;;5015991;28;20283;-74
2022/06/03 06:03:35;;;;;;;6.77;4.27;;;;;;;;;;4999240;28;20507;-74
2022/06/03 06:06:20;;;;;;;8.53;4.17;;;;;;;;;;4978978;28;20221;-74
2022/06/03 06:09:01;;;;;;;7.40;3.87;;;;;;;;;;4995436;28;20499;-75
2022/06/03 06:11:30;;;;;;;5.07;3.57;;;;;;;;;;4978232;28;20842;-76
2022/06/03 06:14:09;;;;;;;8.30;3.80;;;;;;;;;;4977938;28;20801;-75
2022/06/03 06:16:41;;;;;;;6.60;3.47;;;;;;;;;;5008443;28;20233;-75
2022/06/03 06:19:09;;;;;;;7.07;3.70;;;;;;;;;;4994290;28;20225;-74
2022/06/03 06:21:44;;;;;;;9.00;3.53;;;;;;;;;;4994533;28;20556;-75
2022/06/03 06:24:38;;;;;;;4.33;2.97;;;;;;;;;;4984780;28;20229;-78
2022/06/03 06:27:44;;;;;;;5.43;3.00;;;;;;;;;;5027178;28;20236;-76
2022/06/03 06:30:22;;;;;;;6.13;2.88;;;;;;;;;;5023318;28;20741;-75
2022/06/03 06:33:02;;;;;;;4.00;3.00;;;;;;;;;;5000147;28;20721;-74
2022/06/03 06:35:37;;;;;;;4.03;2.92;;;;;;;;;;5010041;28;20706;-74
2022/06/03 06:38:11;;;;;;;6.20;2.58;;;;;;;;;;5018558;28;20265;-75
2022/06/03 06:40:53;;;;;;;5.68;2.97;;;;;;;;;;4997738;28;20327;-76
2022/06/03 06:43:40;;;;;;;3.00;2.55;;;;;;;;;;4993652;28;20284;-75
2022/06/03 06:46:18;;;;;;;4.20;2.55;;;;;;;;;;5011748;28;20274;-76
2022/06/03 06:49:11;;;;;;;4.60;2.72;;;;;;;;;;5005620;28;20317;-75
2022/06/03 06:51:57;;;;;;;4.50;2.40;;;;;;;;;;4996229;28;20225;-75
2022/06/03 06:54:26;;;;;;;3.97;2.60;;;;;;;;;;5013327;28;20315;-75
2022/06/03 06:57:05;;;;;;;3.78;2.30;;;;;;;;;;5016613;28;20228;-75
2022/06/03 06:59:36;;;;;;;4.88;2.35;;;;;;;;;;5011140;28;20592;-76
2022/06/03 07:02:14;;;;;;;6.60;2.55;;;;;;;;;;4999613;28;20228;-75
2022/06/03 07:04:44;;;;;;;2.58;2.15;;;;;;;;;;5002728;28;20240;-76
2022/06/03 07:07:09;;;;;;;2.45;1.83;;;;;;;;;;5015022;28;20239;-75
2022/06/03 07:09:49;;;;;;;4.70;2.63;;;;;;;;;;5014374;28;20342;-75
2022/06/03 07:12:18;;;;;;;6.55;2.40;;;;;;;;;;4979338;28;20327;-76
2022/06/03 07:14:56;;;;;;;4.10;2.45;;;;;;;;;;4998088;28;20234;-75
2022/06/03 07:20:45;;;;;;;3.65;2.10;;;;;;;;;;4999465;28;20225;-75
2022/06/03 07:23:37;;;;;;;3.50;2.33;;;;;;;;;;5008718;28;20258;-75
2022/06/03 07:26:06;;;;;;;2.85;2.22;;;;;;;;;;5018220;28;20687;-75
2022/06/03 07:28:55;;;;;;;5.30;2.10;;;;;;;;;;4995092;28;20267;-74
2022/06/03 07:32:11;;;;;;;4.18;2.10;;;;;;;;;;4982943;28;20320;-75
2022/06/03 07:34:40;;;;;;;2.60;1.88;;;;;;;;;;4999094;28;20236;-77
2022/06/03 07:37:07;;;;;;;4.82;1.98;;;;;;;;;;4999719;28;20232;-75
2022/06/03 07:39:52;;;;;;;5.05;1.88;;;;;;;;;;5021864;28;20611;-75
2022/06/03 07:42:35;;;;;;;3.00;2.00;;;;;;;;;;5018907;28;20969;-75
2022/06/03 07:45:26;;;;;;;3.63;2.03;;;;;;;;;;4999955;28;20224;-75
2022/06/03 07:47:55;;;;;;;3.78;1.70;;;;;;;;;;4997103;28;20730;-76
2022/06/03 07:50:26;;;;;;;2.60;1.73;;;;;;;;;;4984644;28;20270;-75
2022/06/03 07:52:54;;;;;;;2.67;1.83;;;;;;;;;;4994129;28;20263;-75
2022/06/03 07:55:24;;;;;;;2.95;2.10;;;;;;;;;;5012865;28;20240;-75
2022/06/03 07:57:51;;;;;;;2.20;1.60;;;;;;;;;;4998527;28;20232;-75
2022/06/03 08:00:20;;;;;;;2.25;1.55;;;;;;;;;;5002846;28;20282;-75
2022/06/03 08:02:45;;;;;;;1.73;1.60;;;;;;;;;;5014105;28;20636;-75
2022/06/03 08:05:14;;;;;;;2.35;1.88;;;;;;;;;;5013388;28;20231;-74
2022/06/03 08:13:15;;;;;;;1.85;1.65;;;;;;;;;;5006393;28;20713;-75
2022/06/03 08:15:45;;;;;;;2.30;1.70;;;;;;;;;;4997215;28;20234;-75
2022/06/03 08:18:14;;;;;;;3.33;1.65;;;;;;;;;;4985317;28;20722;-74
2022/06/03 08:20:47;;;;;;;3.20;1.70;;;;;;;;;;5012232;28;20242;-75
2022/06/03 08:23:13;;;;;;;3.08;1.70;;;;;;;;;;5000478;28;20648;-74
2022/06/03 08:25:41;;;;;;;2.35;1.50;;;;;;;;;;4983426;28;20316;-75
2022/06/03 08:28:07;;;;;;;4.30;1.88;;;;;;;;;;4997593;28;20619;-75
2022/06/03 08:30:32;;;;;;;4.22;2.00;;;;;;;;;;4999619;28;20225;-75
2022/06/03 08:33:03;;;;;;;1.50;1.40;;;;;;;;;;4995718;28;20240;-76
2022/06/03 08:35:32;;;;;;;4.03;1.80;;;;;;;;;;4990605;28;20219;-74
2022/06/03 08:38:21;;;;;;;2.28;1.70;;;;;;;;;;4979302;28;20252;-75
2022/06/03 08:41:34;;;;;;;2.25;1.77;;;;;;;;;;4999683;28;20700;-74
2022/06/03 08:44:12;;;;;;;2.22;1.70;;;;;;;;;;5017443;28;20710;-75
2022/06/03 08:47:07;;;;;;;2.15;1.60;;;;;;;;;;5036190;28;20228;-75
2022/06/03 08:50:05;;;;;;;1.77;1.65;;;;;;;;;;4998965;28;20224;-75
2022/06/03 08:52:45;;;;;;;2.50;1.60;;;;;;;;;;5019680;28;20224;-75
2022/06/03 08:56:04;;;;;;;2.72;1.80;;;;;;;;;;5018045;28;20221;-76
2022/06/03 08:58:35;;;;;;;2.97;1.50;;;;;;;;;;4996570;28;20236;-75
2022/06/03 09:01:06;;;;;;;3.75;1.27;;;;;;;;;;4991942;28;20229;-75
2022/06/03 09:03:38;;;;;;;1.63;1.30;;;;;;;;;;5009485;28;20220;-75
2022/06/03 09:06:11;;;;;;;3.60;1.45;;;;;;;;;;4997651;28;20217;-75
2022/06/03 09:08:52;;;;;;;1.42;1.33;;;;;;;;;;5000910;28;20663;-74
2022/06/03 09:11:36;;;;;;;2.33;1.65;;;;;;;;;;4996915;28;20288;-74
2022/06/03 09:14:06;;;;;;;2.88;1.55;;;;;;;;;;4996111;28;20225;-75
2022/06/03 09:16:34;;;;;;;2.15;1.70;;;;;;;;;;5007367;28;20217;-75
2022/06/03 09:19:12;;;;;;;5.60;1.42;;;;;;;;;;5017751;28;20224;-75
2022/06/03 09:21:41;;;;;;;2.53;1.52;;;;;;;;;;4989123;28;20638;-75
2022/06/03 09:24:20;;;;;;;1.48;1.38;;;;;;;;;;5002463;28;20386;-77
2022/06/03 09:26:51;;;;;;;1.73;1.60;;;;;;;;;;4996651;28;20225;-73
2022/06/03 09:29:21;;;;;;;1.70;1.60;;;;;;;;;;4984508;28;20224;-74
2022/06/03 09:31:56;;;;;;;1.98;1.45;;;;;;;;;;5006096;28;20366;-76
2022/06/03 09:34:45;;;;;;;1.85;1.48;;;;;;;;;;5010921;28;20405;-74
2022/06/03 09:37:13;;;;;;;2.25;1.60;;;;;;;;;;5012706;28;20314;-76
2022/06/03 09:39:39;;;;;;;1.70;1.42;;;;;;;;;;4986968;28;20592;-75
2022/06/03 09:42:04;;;;;;;1.70;1.48;;;;;;;;;;5007821;28;20224;-75
2022/06/03 09:44:30;;;;;;;1.67;1.30;;;;;;;;;;4978297;28;20694;-74
2022/06/03 09:47:00;;;;;;;3.28;1.42;;;;;;;;;;4998090;28;20284;-76
2022/06/03 09:49:27;;;;;;;1.48;1.25;;;;;;;;;;5002951;28;20228;-75
2022/06/03 09:51:55;;;;;;;1.38;1.10;;;;;;;;;;5007554;28;20229;-77
2022/06/03 09:54:31;;;;;;;2.00;1.35;;;;;;;;;;4988204;28;20279;-75
2022/06/03 09:57:04;;;;;;;1.40;1.30;;;;;;;;;;4997658;28;20222;-75
2022/06/03 09:59:30;;;;;;;1.50;1.40;;;;;;;;;;5021921;28;20702;-75
2022/06/03 10:01:55;;;;;;;2.15;1.50;;;;;;;;;;5003936;28;20315;-75
2022/06/03 10:04:21;;;;;;;1.30;1.20;;;;;;;;;;5011432;28;20226;-75
2022/06/03 10:06:47;;;;;;;1.40;1.30;;;;;;;;;;5001014;28;20220;-75
2022/06/03 10:17:47;;;;;;;2.03;1.27;;;;;;;;;;4999393;28;20282;-75
2022/06/03 10:20:17;;;;;;;1.50;1.40;;;;;;;;;;4994834;28;20232;-75
2022/06/03 10:22:49;;;;;;;1.55;1.30;;;;;;;;;;4993429;28;20228;-75
2022/06/03 10:25:17;;;;;;;1.58;1.40;;;;;;;;;;5017582;28;20220;-75
2022/06/03 10:27:45;;;;;;;1.35;1.25;;;;;;;;;;5010297;28;20286;-74
2022/06/03 10:30:11;;;;;;;3.40;1.30;;;;;;;;;;5015165;28;20295;-74
2022/06/03 10:32:39;;;;;;;1.38;1.27;;;;;;;;;;5018830;28;20819;-75
2022/06/03 10:35:13;;;;;;;1.83;1.38;;;;;;;;;;5018346;28;20312;-75
2022/06/03 10:37:58;;;;;;;2.20;1.50;;;;;;;;;;5002707;28;20223;-75
2022/06/03 10:40:26;;;;;;;1.50;1.40;;;;;;;;;;5016846;28;20285;-76
2022/06/03 10:42:56;;;;;;;1.35;1.20;;;;;;;;;;5014453;28;20224;-75
2022/06/03 10:45:42;;;;;;;3.08;1.60;;;;;;;;;;4963598;28;20222;-76
2022/06/03 10:48:24;;;;;;;1.50;1.38;;;;;;;;;;5009365;28;20498;-75
2022/06/03 10:50:53;;;;;;;1.50;1.20;;;;;;;;;;5015899;28;20314;-75
2022/06/03 11:01:54;;;;;;;1.30;1.20;;;;;;;;;;4994360;28;20228;-75
2022/06/03 11:04:33;;;;;;;1.25;1.17;;;;;;;;;;4998308;28;20709;-75
2022/06/03 11:07:00;;;;;;;2.08;1.20;;;;;;;;;;5027253;28;20311;-75
2022/06/03 11:09:30;;;;;;;1.75;1.35;;;;;;;;;;4982275;28;20768;-76
2022/06/03 11:12:04;;;;;;;1.48;1.30;;;;;;;;;;5002986;28;20224;-76
2022/06/03 11:14:42;;;;;;;2.00;1.40;;;;;;;;;;4992216;28;20224;-75
2022/06/03 11:17:16;;;;;;;1.83;1.30;;;;;;;;;;4992012;28;20282;-76
2022/06/03 11:19:49;;;;;;;1.48;1.27;;;;;;;;;;5014681;28;20274;-75
2022/06/03 11:22:17;;;;;;;1.20;1.10;;;;;;;;;;5011397;28;20263;-76
2022/06/03 11:25:08;;;;;;;1.30;1.20;;;;;;;;;;5010373;28;20220;-76
2022/06/03 11:27:50;;;;;;;1.98;1.38;;;;;;;;;;5016643;28;20252;-77
2022/06/03 11:30:46;;;;;;;1.40;1.30;;;;;;;;;;5002066;28;20353;-76
2022/06/03 11:33:28;;;;;;;1.52;1.33;;;;;;;;;;5034005;28;20220;-78
2022/06/03 11:36:02;;;;;;;1.67;1.50;;;;;;;;;;5006306;28;20212;-77
2022/06/03 11:38:31;;;;;;;1.65;1.20;;;;;;;;;;5017823;28;20290;-77
2022/06/03 11:41:02;;;;;;;1.75;1.23;;;;;;;;;;5024075;28;20219;-76
2022/06/03 11:43:53;;;;;;;1.15;1.15;;;;;;;;;;4983541;28;20240;-76
2022/06/03 11:46:37;;;;;;;1.15;1.10;;;;;;;;;;4993678;28;20659;-76
2022/06/03 11:49:05;;;;;;;1.60;1.30;;;;;;;;;;5023074;28;20685;-76
2022/06/03 11:51:31;;;;;;;2.17;1.35;;;;;;;;;;5002818;28;20304;-76
2022/06/03 11:53:56;;;;;;;1.30;1.20;;;;;;;;;;4988195;28;20308;-75
2022/06/03 11:56:24;;;;;;;1.85;1.15;;;;;;;;;;4999079;28;20227;-77
2022/06/03 11:59:02;;;;;;;2.67;1.40;;;;;;;;;;4984179;28;20303;-75
2022/06/03 12:01:52;;;;;;;1.20;1.10;;;;;;;;;;5009390;28;20315;-76
2022/06/03 12:04:40;;;;;;;1.35;1.00;;;;;;;;;;5003023;28;20228;-77
2022/06/03 12:07:43;;;;;;;1.17;1.08;;;;;;;;;;5014966;28;20224;-77
2022/06/03 12:10:12;;;;;;;1.17;1.10;;;;;;;;;;5014384;28;20325;-77
2022/06/03 12:15:53;;;;;;;2.33;1.33;;;;;;;;;;4978136;28;20220;-75
2022/06/03 12:18:31;;;;;;;1.33;1.13;;;;;;;;;;4995489;28;20221;-73
2022/06/03 12:20:57;;;;;;;1.67;1.40;;;;;;;;;;5016510;28;20308;-75
2022/06/03 12:23:23;;;;;;;2.72;1.50;;;;;;;;;;5003195;28;20244;-72
2022/06/03 12:25:48;;;;;;;2.25;1.42;;;;;;;;;;5019921;28;20634;-77
2022/06/03 12:28:29;;;;;;;1.63;1.30;;;;;;;;;;5012352;28;20613;-76
2022/06/03 12:31:10;;;;;;;2.08;1.10;;;;;;;;;;5027139;28;20410;-76
2022/06/03 12:33:54;;;;;;;1.05;1.05;;;;;;;;;;5008323;28;20223;-75
2022/06/03 12:36:39;;;;;;;1.27;1.17;;;;;;;;;;5014464;28;20290;-75
2022/06/03 12:39:08;;;;;;;1.30;1.20;;;;;;;;;;5007868;28;20233;-76
2022/06/03 12:42:02;;;;;;;1.88;1.27;;;;;;;;;;4993794;28;20756;-73
2022/06/03 12:44:46;;;;;;;2.42;1.30;;;;;;;;;;4998110;28;20322;-75
2022/06/03 12:47:20;;;;;;;1.25;1.15;;;;;;;;;;5016625;28;20568;-75
2022/06/03 12:49:47;;;;;;;1.60;1.50;;;;;;;;;;5017233;28;20221;-75
2022/06/03 12:52:37;;;;;;;1.60;1.17;;;;;;;;;;5010906;28;21007;-75
2022/06/03 12:55:14;;;;;;;1.30;1.20;;;;;;;;;;5017456;28;20224;-75
2022/06/03 12:58:18;;;;;;;1.50;1.40;;;;;;;;;;5020812;28;20245;-75
2022/06/03 13:00:51;;;;;;;1.55;1.08;;;;;;;;;;5026829;28;20252;-75
2022/06/03 13:03:16;;;;;;;2.08;1.20;;;;;;;;;;4991939;28;20240;-75
2022/06/03 13:05:47;;;;;;;1.30;1.20;;;;;;;;;;5020125;28;20702;-76
2022/06/03 13:08:27;;;;;;;1.80;1.23;;;;;;;;;;5009445;28;20323;-76
2022/06/03 13:11:30;;;;;;;2.25;1.30;;;;;;;;;;5010105;28;20226;-76
2022/06/03 13:13:56;;;;;;;1.05;1.05;;;;;;;;;;5015054;28;20230;-75
2022/06/03 13:16:31;;;;;;;1.38;1.00;;;;;;;;;;5012863;28;20220;-75
2022/06/03 13:19:12;;;;;;;2.78;1.33;;;;;;;;;;5035825;28;20287;-75
2022/06/03 13:21:56;;;;;;;1.35;1.25;;;;;;;;;;5037660;28;20290;-75
2022/06/03 13:24:27;;;;;;;1.48;1.33;;;;;;;;;;5010726;28;20710;-76
2022/06/03 13:26:58;;;;;;;2.72;1.30;;;;;;;;;;5003384;28;20613;-75
2022/06/03 13:29:48;;;;;;;1.45;1.27;;;;;;;;;;5013671;28;20236;-75
2022/06/03 13:32:15;;;;;;;1.17;1.08;;;;;;;;;;5015433;28;20678;-75
2022/06/03 13:34:43;;;;;;;2.80;1.23;;;;;;;;;;5018606;28;20223;-75
2022/06/03 13:37:30;;;;;;;1.40;1.30;;;;;;;;;;4982924;28;20212;-75
2022/06/03 13:39:56;;;;;;;1.50;1.30;;;;;;;;;;5004864;28;20220;-76
2022/06/03 13:45:18;;;;;;;1.27;1.10;;;;;;;;;;4996338;28;20255;-76
2022/06/03 13:47:53;;;;;;;1.15;1.05;;;;;;;;;;5012061;28;20241;-73
2022/06/03 13:50:28;;;;;;;1.33;1.23;;;;;;;;;;4993647;28;20220;-75
2022/06/03 13:53:12;;;;;;;1.55;1.00;;;;;;;;;;5014501;28;20294;-75
2022/06/03 13:55:41;;;;;;;2.10;1.30;;;;;;;;;;5016968;28;20269;-76
2022/06/03 13:58:06;;;;;;;1.15;1.10;;;;;;;;;;5011636;28;20224;-76
2022/06/03 14:00:38;;;;;;;1.50;1.40;;;;;;;;;;5012565;28;20264;-75
2022/06/03 14:03:07;;;;;;;1.88;1.20;;;;;;;;;;5000057;28;20244;-75
2022/06/03 14:05:33;;;;;;;1.60;1.50;;;;;;;;;;4999548;28;20638;-76
2022/06/03 14:08:09;;;;;;;2.35;1.40;;;;;;;;;;4984835;28;20605;-75
2022/06/03 14:10:43;;;;;;;1.40;1.00;;;;;;;;;;5005612;28;20216;-74
2022/06/03 14:13:17;;;;;;;1.38;1.20;;;;;;;;;;4994803;28;20224;-76
2022/06/03 14:16:09;;;;;;;1.42;1.30;;;;;;;;;;4985928;28;20697;-75
2022/06/03 14:18:54;;;;;;;1.98;1.20;;;;;;;;;;4982010;28;20266;-77
2022/06/03 14:21:37;;;;;;;1.00;1.00;;;;;;;;;;5015581;28;20239;-76
2022/06/03 14:24:19;;;;;;;2.33;1.48;;;;;;;;;;5011723;28;20228;-76
2022/06/03 14:26:56;;;;;;;0.88;0.88;;;;;;;;;;5010750;28;20248;-76
2022/06/03 14:30:02;;;;;;;1.58;1.10;;;;;;;;;;5013519;28;20776;-76
2022/06/03 14:32:32;;;;;;;1.45;1.35;;;;;;;;;;5010387;28;20323;-78
2022/06/03 14:35:00;;;;;;;1.40;1.10;;;;;;;;;;4998236;28;20216;-76
2022/06/03 14:37:39;;;;;;;1.20;1.10;;;;;;;;;;4997200;28;20216;-76
2022/06/03 14:40:06;;;;;;;1.73;1.20;;;;;;;;;;5017503;28;20275;-77
2022/06/03 14:42:35;;;;;;;3.05;1.42;;;;;;;;;;4991995;28;20220;-76
2022/06/03 14:45:05;;;;;;;1.92;1.30;;;;;;;;;;4997556;28;20632;-73
2022/06/03 14:47:32;;;;;;;1.65;1.40;;;;;;;;;;4999995;28;20236;-74
2022/06/03 14:50:07;;;;;;;1.25;1.20;;;;;;;;;;5005635;28;20217;-75
2022/06/03 14:52:39;;;;;;;1.35;1.25;;;;;;;;;;4998497;28;20247;-73
2022/06/03 14:55:20;;;;;;;2.95;1.50;;;;;;;;;;5015075;28;20220;-73
2022/06/03 14:57:53;;;;;;;1.40;1.30;;;;;;;;;;5008971;28;20692;-74
2022/06/03 15:00:49;;;;;;;1.48;1.10;;;;;;;;;;5014688;28;20216;-74
2022/06/03 15:03:43;;;;;;;1.65;1.30;;;;;;;;;;4997357;28;20693;-77
2022/06/03 15:06:14;;;;;;;1.65;1.40;;;;;;;;;;5020849;28;20219;-74
2022/06/03 15:08:50;;;;;;;1.40;1.30;;;;;;;;;;4998896;28;20236;-73
2022/06/03 15:11:42;;;;;;;1.30;1.17;;;;;;;;;;4997583;28;20228;-75
2022/06/03 15:14:17;;;;;;;1.00;1.00;;;;;;;;;;4983755;28;20230;-74
2022/06/03 15:16:59;;;;;;;1.50;1.40;;;;;;;;;;5020332;28;20236;-75
2022/06/03 15:19:44;;;;;;;1.30;1.20;;;;;;;;;;4996489;28;20224;-74
2022/06/03 15:22:30;;;;;;;1.70;1.17;;;;;;;;;;5001061;28;20607;-74
2022/06/03 15:25:33;;;;;;;1.20;1.10;;;;;;;;;;5019643;28;20702;-75
2022/06/03 15:28:01;;;;;;;1.42;1.15;;;;;;;;;;5013832;28;20216;-74
2022/06/03 15:30:32;;;;;;;2.42;1.20;;;;;;;;;;5010427;28;20691;-75
2022/06/03 15:32:58;;;;;;;2.97;1.33;;;;;;;;;;5021002;28;20282;-76
2022/06/03 15:35:26;;;;;;;1.27;1.17;;;;;;;;;;4985892;28;20224;-76
2022/06/03 15:37:54;;;;;;;1.10;1.10;;;;;;;;;;5005823;28;20608;-76
2022/06/03 15:40:44;;;;;;;2.47;1.10;;;;;;;;;;4986114;28;20316;-76
2022/06/03 15:43:28;;;;;;;1.33;1.10;;;;;;;;;;4999262;28;20260;-76
2022/06/03 15:45:56;;;;;;;1.60;1.30;;;;;;;;;;4998243;28;20228;-76
2022/06/03 15:48:25;;;;;;;1.60;1.30;;;;;;;;;;4995201;28;20246;-76
2022/06/03 15:51:00;;;;;;;1.17;1.10;;;;;;;;;;5017090;28;20224;-76
2022/06/03 15:53:30;;;;;;;1.20;1.10;;;;;;;;;;5016036;28;20252;-76
2022/06/03 15:56:14;;;;;;;2.90;1.13;;;;;;;;;;4983357;28;20607;-75
2022/06/03 15:59:00;;;;;;;1.08;1.08;;;;;;;;;;5023502;28;20216;-77
2022/06/03 16:01:32;;;;;;;1.70;1.15;;;;;;;;;;5010095;28;20224;-76
2022/06/03 16:04:14;;;;;;;1.20;1.10;;;;;;;;;;5016882;28;20224;-76
2022/06/03 16:06:59;;;;;;;1.38;1.27;;;;;;;;;;5005481;28;20232;-76
2022/06/03 16:09:32;;;;;;;2.38;1.23;;;;;;;;;;5002799;28;20246;-76
2022/06/03 16:12:24;;;;;;;1.05;1.00;;;;;;;;;;5015730;28;20275;-77
2022/06/03 16:15:08;;;;;;;2.17;1.15;;;;;;;;;;5015331;28;20229;-77
2022/06/03 16:18:10;;;;;;;1.38;1.17;;;;;;;;;;5019607;28;20215;-76
2022/06/03 16:20:52;;;;;;;1.50;1.17;;;;;;;;;;4984471;28;20233;-77
2022/06/03 16:23:23;;;;;;;2.55;1.10;;;;;;;;;;5019667;28;20303;-75
2022/06/03 16:26:10;;;;;;;1.40;1.05;;;;;;;;;;5001531;28;20256;-76
2022/06/03 16:29:01;;;;;;;1.50;1.38;;;;;;;;;;5027641;28;20228;-77
2022/06/03 16:31:31;;;;;;;1.95;1.27;;;;;;;;;;5026391;28;22727;-76
2022/06/03 16:34:17;;;;;;;3.35;1.23;;;;;;;;;;5020625;28;20228;-76
2022/06/03 16:39:58;;;;;;;2.03;1.50;;;;;;;;;;5005889;28;20595;-76
2022/06/03 16:42:49;;;;;;;2.90;1.30;;;;;;;;;;4979675;28;20604;-75